Time,TemperatureF,DewpointF,PressureIn,WindDirection,WindDirectionDegrees,WindSpeedMPH,WindSpeedGustMPH,Humidity,HourlyPrecipIn,Conditions,Clouds,dailyrainin,SoftwareType,DateUTC
2013-05-11 00:01:00,55.5,54.4,29.99,South,185,3.0,4.0,96,0.00,,---,0.00,VWS V14.01,2013-05-11 04:01:00,
2013-05-11 00:02:00,55.5,54.1,29.99,South,191,2.0,4.0,95,0.00,,---,0.00,VWS V14.01,2013-05-11 04:02:00,
2013-05-11 00:07:00,55.5,54.4,29.99,SSW,212,2.0,4.0,96,0.00,,---,0.00,VWS V14.01,2013-05-11 04:07:00,
2013-05-11 00:12:00,55.5,54.4,29.99,South,189,2.0,6.0,96,0.00,,---,0.00,VWS V14.01,2013-05-11 04:12:00,
2013-05-11 00:17:00,55.5,54.4,29.98,SSW,202,2.0,4.0,96,0.00,,---,0.00,VWS V14.01,2013-05-11 04:17:00,
2013-05-11 00:22:00,55.5,54.4,29.99,SSW,212,2.0,12.0,96,0.00,,---,0.00,VWS V14.01,2013-05-11 04:22:00,
2013-05-11 00:27:00,55.4,54.3,29.99,South,183,1.0,4.0,96,0.00,,---,0.00,VWS V14.01,2013-05-11 04:27:00,
2013-05-11 00:32:00,55.5,54.4,29.98,South,184,2.0,5.0,96,0.00,,---,0.00,VWS V14.01,2013-05-11 04:32:00,
2013-05-11 00:37:00,55.6,54.5,29.98,SSW,202,1.0,2.0,96,0.00,,---,0.00,VWS V14.01,2013-05-11 04:37:00,
2013-05-11 00:41:00,55.7,54.6,29.98,SSW,197,1.0,5.0,96,0.00,,---,0.00,VWS V14.01,2013-05-11 04:41:00,
2013-05-11 00:46:00,55.7,54.6,29.98,SSW,192,2.0,6.0,96,0.00,,---,0.00,VWS V14.01,2013-05-11 04:46:00,
2013-05-11 00:52:00,55.8,54.7,29.98,SSW,202,2.0,7.0,96,0.00,,---,0.00,VWS V14.01,2013-05-11 04:52:00,
2013-05-11 00:57:00,55.8,54.7,29.98,SSW,193,2.0,10.0,96,0.00,,---,0.00,VWS V14.01,2013-05-11 04:57:00,
2013-05-11 01:01:00,55.8,54.7,29.98,SSW,198,1.0,6.0,96,0.00,,---,0.00,VWS V14.01,2013-05-11 05:01:00,
2013-05-11 01:06:00,55.9,54.8,29.98,South,188,2.0,7.0,96,0.00,,---,0.00,VWS V14.01,2013-05-11 05:06:00,
2013-05-11 01:11:00,55.9,54.8,29.97,South,189,3.0,6.0,96,0.00,,---,0.00,VWS V14.01,2013-05-11 05:11:00,
2013-05-11 01:16:00,55.9,54.8,29.97,SSW,193,2.0,4.0,96,0.00,,---,0.00,VWS V14.01,2013-05-11 05:16:00,
2013-05-11 01:21:00,55.9,54.8,29.97,South,189,3.0,7.0,96,0.00,,---,0.00,VWS V14.01,2013-05-11 05:21:00,
2013-05-11 01:26:00,55.9,55.1,29.97,SW,220,2.0,7.0,97,0.00,,---,0.00,VWS V14.01,2013-05-11 05:26:00,
2013-05-11 01:31:00,55.8,55.0,29.97,South,187,3.0,6.0,97,0.00,,---,0.00,VWS V14.01,2013-05-11 05:31:00,
2013-05-11 01:36:00,55.8,55.0,29.97,SSE,167,1.0,4.0,97,0.00,,---,0.00,VWS V14.01,2013-05-11 05:36:00,
2013-05-11 01:41:00,55.9,55.3,29.96,South,184,3.0,3.0,98,0.00,,---,0.00,VWS V14.01,2013-05-11 05:41:00,
2013-05-11 01:46:00,55.9,55.3,29.96,South,181,3.0,6.0,98,0.00,,---,0.00,VWS V14.01,2013-05-11 05:46:00,
2013-05-11 01:51:00,55.8,55.0,29.96,SSE,168,3.0,3.0,97,0.00,,---,0.00,VWS V14.01,2013-05-11 05:51:00,
2013-05-11 01:56:00,55.6,55.0,29.96,South,176,2.0,7.0,98,0.00,,---,0.00,VWS V14.01,2013-05-11 05:56:00,
2013-05-11 02:01:00,55.5,55.0,29.96,SSE,159,2.0,5.0,98,0.00,,---,0.00,VWS V14.01,2013-05-11 06:01:00,
2013-05-11 02:06:00,55.4,54.8,29.96,South,179,2.0,5.0,98,0.00,,---,0.00,VWS V14.01,2013-05-11 06:06:00,
2013-05-11 02:11:00,55.4,54.8,29.95,SSW,193,4.0,5.0,98,0.00,,---,0.00,VWS V14.01,2013-05-11 06:11:00,
2013-05-11 02:16:00,55.4,54.8,29.95,SSW,198,1.0,7.0,98,0.00,,---,0.00,VWS V14.01,2013-05-11 06:16:00,
2013-05-11 02:21:00,55.5,55.0,29.95,South,183,3.0,5.0,98,0.00,,---,0.00,VWS V14.01,2013-05-11 06:21:00,
2013-05-11 02:26:00,55.3,54.8,29.95,South,176,2.0,4.0,98,0.00,,---,0.00,VWS V14.01,2013-05-11 06:26:00,
2013-05-11 02:31:00,55.3,54.8,29.95,SSW,194,5.0,7.0,98,0.00,,---,0.00,VWS V14.01,2013-05-11 06:31:00,
2013-05-11 02:36:00,55.3,54.8,29.95,SW,222,0.0,7.0,98,0.00,,---,0.00,VWS V14.01,2013-05-11 06:36:00,
2013-05-11 02:41:00,55.3,54.8,29.95,South,177,3.0,6.0,98,0.00,,---,0.00,VWS V14.01,2013-05-11 06:41:00,
2013-05-11 02:46:00,55.2,54.7,29.94,South,179,3.0,5.0,98,0.00,,---,0.00,VWS V14.01,2013-05-11 06:46:00,
2013-05-11 02:51:00,55.1,54.5,29.94,SSW,197,4.0,5.0,98,0.00,,---,0.00,VWS V14.01,2013-05-11 06:51:00,
2013-05-11 02:56:00,55.0,54.5,29.94,South,172,2.0,4.0,98,0.00,,---,0.00,VWS V14.01,2013-05-11 06:56:00,
2013-05-11 03:01:00,54.9,54.3,29.94,SSE,164,3.0,4.0,98,0.00,,---,0.00,VWS V14.01,2013-05-11 07:01:00,
2013-05-11 03:06:00,54.6,54.0,29.94,South,169,2.0,5.0,98,0.00,,---,0.00,VWS V14.01,2013-05-11 07:06:00,
2013-05-11 03:11:00,54.6,54.0,29.94,South,185,3.0,5.0,98,0.00,,---,0.00,VWS V14.01,2013-05-11 07:11:00,
2013-05-11 03:16:00,54.5,54.2,29.93,SSW,196,4.0,5.0,99,0.00,,---,0.00,VWS V14.01,2013-05-11 07:16:00,
2013-05-11 03:21:00,54.5,54.2,29.93,South,170,1.0,5.0,99,0.00,,---,0.00,VWS V14.01,2013-05-11 07:21:00,
2013-05-11 03:26:00,54.4,54.1,29.93,South,176,1.0,6.0,99,0.00,,---,0.00,VWS V14.01,2013-05-11 07:26:00,
2013-05-11 03:31:00,54.5,54.2,29.93,South,182,2.0,5.0,99,0.00,,---,0.00,VWS V14.01,2013-05-11 07:31:00,
2013-05-11 03:36:00,54.6,54.3,29.93,SSE,162,5.0,5.0,99,0.00,,---,0.00,VWS V14.01,2013-05-11 07:36:00,
2013-05-11 03:41:00,54.5,54.2,29.93,South,169,1.0,4.0,99,0.00,,---,0.00,VWS V14.01,2013-05-11 07:41:00,
2013-05-11 03:46:00,54.4,54.1,29.93,South,169,3.0,5.0,99,0.00,,---,0.00,VWS V14.01,2013-05-11 07:46:00,
2013-05-11 03:51:00,54.4,54.1,29.92,SSE,158,2.0,5.0,99,0.00,,---,0.00,VWS V14.01,2013-05-11 07:51:00,
2013-05-11 03:56:00,54.3,54.0,29.92,SE,143,1.0,3.0,99,0.00,,---,0.00,VWS V14.01,2013-05-11 07:56:00,
2013-05-11 04:01:00,54.4,54.1,29.92,SE,144,1.0,5.0,99,0.00,,---,0.00,VWS V14.01,2013-05-11 08:01:00,
2013-05-11 04:06:00,54.5,54.2,29.91,SSE,152,2.0,4.0,99,0.00,,---,0.00,VWS V14.01,2013-05-11 08:06:00,
2013-05-11 04:11:00,54.6,54.3,29.91,SSE,166,2.0,5.0,99,0.00,,---,0.00,VWS V14.01,2013-05-11 08:11:00,
2013-05-11 04:16:00,54.7,54.4,29.91,SSE,153,3.0,5.0,99,0.00,,---,0.00,VWS V14.01,2013-05-11 08:16:00,
2013-05-11 04:21:00,54.7,54.4,29.91,South,180,2.0,4.0,99,0.00,,---,0.00,VWS V14.01,2013-05-11 08:21:00,
2013-05-11 04:26:00,54.7,54.4,29.91,South,179,3.0,5.0,99,0.00,,---,0.00,VWS V14.01,2013-05-11 08:26:00,
2013-05-11 04:31:00,54.8,54.5,29.91,South,172,2.0,5.0,99,0.00,,---,0.00,VWS V14.01,2013-05-11 08:31:00,
2013-05-11 04:36:00,54.9,54.6,29.91,South,172,2.0,4.0,99,0.00,,---,0.00,VWS V14.01,2013-05-11 08:36:00,
2013-05-11 04:41:00,54.9,54.6,29.91,South,171,1.0,1.0,99,0.00,,---,0.00,VWS V14.01,2013-05-11 08:41:00,
2013-05-11 04:46:00,54.8,54.5,29.90,South,172,2.0,3.0,99,0.00,,---,0.00,VWS V14.01,2013-05-11 08:46:00,
2013-05-11 04:51:00,54.9,54.6,29.90,South,171,0.0,2.0,99,0.00,,---,0.00,VWS V14.01,2013-05-11 08:51:00,
2013-05-11 04:56:00,55.0,54.7,29.90,South,170,0.0,4.0,99,0.00,,---,0.00,VWS V14.01,2013-05-11 08:56:00,
2013-05-11 05:01:00,55.0,54.7,29.91,SSE,154,1.0,3.0,99,0.00,,---,0.00,VWS V14.01,2013-05-11 09:01:00,
2013-05-11 05:06:00,55.2,54.9,29.91,South,173,1.0,4.0,99,0.00,,---,0.00,VWS V14.01,2013-05-11 09:06:00,
2013-05-11 05:11:00,55.4,55.1,29.90,South,179,5.0,6.0,99,0.00,,---,0.00,VWS V14.01,2013-05-11 09:11:00,
2013-05-11 05:16:00,55.5,55.2,29.90,South,175,3.0,9.0,99,0.00,,---,0.00,VWS V14.01,2013-05-11 09:16:00,
2013-05-11 05:21:00,56.2,55.9,29.90,South,185,3.0,9.0,99,0.00,,---,0.00,VWS V14.01,2013-05-11 09:21:00,
2013-05-11 05:26:00,56.4,56.1,29.91,SSE,162,3.0,12.0,99,0.00,,---,0.00,VWS V14.01,2013-05-11 09:26:00,
2013-05-11 05:31:00,56.4,56.1,29.91,South,175,4.0,9.0,99,0.00,,---,0.00,VWS V14.01,2013-05-11 09:31:00,
2013-05-11 05:36:00,56.6,56.3,29.91,SSW,197,7.0,16.0,99,0.00,,---,0.00,VWS V14.01,2013-05-11 09:36:00,
2013-05-11 05:41:00,56.6,56.3,29.92,South,181,5.0,22.0,99,0.00,,---,0.00,VWS V14.01,2013-05-11 09:41:00,
2013-05-11 05:46:00,56.7,56.4,29.92,SSW,195,10.0,13.0,99,0.00,,---,0.00,VWS V14.01,2013-05-11 09:46:00,
2013-05-11 05:51:00,56.8,56.5,29.91,SSW,203,7.0,15.0,99,0.00,,---,0.00,VWS V14.01,2013-05-11 09:51:00,
2013-05-11 05:56:00,56.7,56.4,29.91,SW,222,9.0,12.0,99,0.00,,---,0.00,VWS V14.01,2013-05-11 09:56:00,
2013-05-11 06:01:00,56.7,56.4,29.91,SSW,213,7.0,14.0,99,0.00,,---,0.00,VWS V14.01,2013-05-11 10:01:00,
2013-05-11 06:06:00,56.8,56.2,29.90,SSW,206,5.0,12.0,98,0.00,,---,0.00,VWS V14.01,2013-05-11 10:06:00,
2013-05-11 06:11:00,56.8,56.0,29.90,South,189,3.0,6.0,97,0.00,,---,0.00,VWS V14.01,2013-05-11 10:11:00,
2013-05-11 06:16:00,56.8,56.0,29.90,South,183,4.0,12.0,97,0.00,,---,0.00,VWS V14.01,2013-05-11 10:16:00,
2013-05-11 06:21:00,56.7,55.9,29.88,SE,133,4.0,5.0,97,0.00,,---,0.00,VWS V14.01,2013-05-11 10:21:00,
2013-05-11 06:26:00,56.6,55.8,29.89,South,172,4.0,4.0,97,0.00,,---,0.00,VWS V14.01,2013-05-11 10:26:00,
2013-05-11 06:31:00,56.6,55.8,29.89,SSW,199,3.0,5.0,97,0.00,,---,0.00,VWS V14.01,2013-05-11 10:31:00,
2013-05-11 06:36:00,56.5,55.4,29.90,South,191,2.0,7.0,96,0.00,,---,0.00,VWS V14.01,2013-05-11 10:36:00,
2013-05-11 06:41:00,56.6,55.5,29.90,South,179,5.0,6.0,96,0.00,,---,0.00,VWS V14.01,2013-05-11 10:41:00,
2013-05-11 06:46:00,56.5,55.4,29.92,SSW,212,4.0,10.0,96,0.00,,---,0.00,VWS V14.01,2013-05-11 10:46:00,
2013-05-11 06:51:00,56.4,55.3,29.91,SSW,195,4.0,6.0,96,0.00,,---,0.00,VWS V14.01,2013-05-11 10:51:00,
2013-05-11 06:56:00,56.3,55.2,29.91,SSW,196,9.0,9.0,96,0.01,,---,0.01,VWS V14.01,2013-05-11 10:56:00,
2013-05-11 07:01:00,56.2,55.1,29.91,SW,226,5.0,11.0,96,0.01,,---,0.01,VWS V14.01,2013-05-11 11:01:00,
2013-05-11 07:06:00,56.1,55.0,29.92,SSW,195,4.0,10.0,96,0.01,,---,0.01,VWS V14.01,2013-05-11 11:06:00,
2013-05-11 07:11:00,56.1,55.0,29.91,South,185,2.0,7.0,96,0.01,,---,0.01,VWS V14.01,2013-05-11 11:11:00,
2013-05-11 07:16:00,56.1,55.0,29.91,South,185,6.0,16.0,96,0.01,,---,0.01,VWS V14.01,2013-05-11 11:16:00,
2013-05-11 07:21:00,56.2,54.8,29.91,South,172,3.0,11.0,95,0.01,,---,0.01,VWS V14.01,2013-05-11 11:21:00,
2013-05-11 07:26:00,56.2,54.8,29.91,South,187,5.0,11.0,95,0.01,,---,0.01,VWS V14.01,2013-05-11 11:26:00,
2013-05-11 07:31:00,56.1,55.0,29.91,SSW,199,5.0,9.0,96,0.02,,---,0.02,VWS V14.01,2013-05-11 11:31:00,
2013-05-11 07:36:00,56.0,54.9,29.90,SSW,202,4.0,7.0,96,0.02,,---,0.02,VWS V14.01,2013-05-11 11:36:00,
2013-05-11 07:41:00,56.0,54.9,29.90,SSE,162,7.0,11.0,96,0.02,,---,0.02,VWS V14.01,2013-05-11 11:41:00,
2013-05-11 07:46:00,56.0,54.9,29.90,South,177,3.0,6.0,96,0.02,,---,0.02,VWS V14.01,2013-05-11 11:46:00,
2013-05-11 07:51:00,55.9,54.8,29.90,South,182,5.0,6.0,96,0.02,,---,0.02,VWS V14.01,2013-05-11 11:51:00,
2013-05-11 07:56:00,55.9,54.8,29.90,SSW,211,6.0,7.0,96,0.02,,---,0.02,VWS V14.01,2013-05-11 11:56:00,
2013-05-11 08:01:00,55.8,54.7,29.90,SSW,202,3.0,5.0,96,0.01,,---,0.02,VWS V14.01,2013-05-11 12:01:00,
2013-05-11 08:06:00,55.9,54.8,29.90,South,179,5.0,6.0,96,0.01,,---,0.02,VWS V14.01,2013-05-11 12:06:00,
2013-05-11 08:11:00,56.0,54.9,29.90,SSW,193,3.0,7.0,96,0.01,,---,0.02,VWS V14.01,2013-05-11 12:11:00,
2013-05-11 08:16:00,56.2,55.4,29.90,South,181,3.0,7.0,97,0.01,,---,0.02,VWS V14.01,2013-05-11 12:16:00,
2013-05-11 08:21:00,56.3,55.2,29.90,SW,224,3.0,12.0,96,0.01,,---,0.02,VWS V14.01,2013-05-11 12:21:00,
2013-05-11 08:26:00,56.3,55.2,29.90,SSW,207,5.0,10.0,96,0.01,,---,0.02,VWS V14.01,2013-05-11 12:26:00,
2013-05-11 08:31:00,56.2,54.8,29.90,SW,226,6.0,14.0,95,0.00,,---,0.02,VWS V14.01,2013-05-11 12:31:00,
2013-05-11 08:36:00,56.2,54.8,29.90,South,181,4.0,13.0,95,0.00,,---,0.02,VWS V14.01,2013-05-11 12:36:00,
2013-05-11 08:41:00,56.3,55.2,29.89,SSW,203,1.0,9.0,96,0.00,,---,0.02,VWS V14.01,2013-05-11 12:41:00,
2013-05-11 08:46:00,56.5,55.4,29.89,SW,226,11.0,11.0,96,0.00,,---,0.02,VWS V14.01,2013-05-11 12:46:00,
2013-05-11 08:51:00,56.7,55.3,29.89,SW,215,5.0,8.0,95,0.00,,---,0.02,VWS V14.01,2013-05-11 12:51:00,
2013-05-11 08:56:00,56.8,55.4,29.89,SW,223,7.0,7.0,95,0.00,,---,0.02,VWS V14.01,2013-05-11 12:56:00,
2013-05-11 09:01:00,57.1,56.0,29.88,SW,225,4.0,12.0,96,0.00,,---,0.02,VWS V14.01,2013-05-11 13:01:00,
2013-05-11 09:06:00,57.3,55.9,29.88,SW,227,11.0,14.0,95,0.00,,---,0.02,VWS V14.01,2013-05-11 13:06:00,
2013-05-11 09:11:00,57.4,56.0,29.88,WSW,240,9.0,14.0,95,0.00,,---,0.02,VWS V14.01,2013-05-11 13:11:00,
2013-05-11 09:16:00,57.6,56.2,29.88,South,183,6.0,10.0,95,0.00,,---,0.02,VWS V14.01,2013-05-11 13:16:00,
2013-05-11 09:21:00,57.9,56.5,29.88,SW,216,9.0,11.0,95,0.00,,---,0.02,VWS V14.01,2013-05-11 13:21:00,
2013-05-11 09:26:00,58.0,56.3,29.89,SW,229,9.0,16.0,94,0.00,,---,0.02,VWS V14.01,2013-05-11 13:26:00,
2013-05-11 09:31:00,58.0,56.3,29.88,SSW,206,6.0,7.0,94,0.00,,---,0.02,VWS V14.01,2013-05-11 13:31:00,
2013-05-11 09:36:00,58.1,56.4,29.88,South,190,3.0,9.0,94,0.00,,---,0.02,VWS V14.01,2013-05-11 13:36:00,
2013-05-11 09:41:00,58.2,56.5,29.88,SSW,193,4.0,10.0,94,0.00,,---,0.02,VWS V14.01,2013-05-11 13:41:00,
2013-05-11 09:46:00,58.1,56.4,29.88,SW,218,10.0,12.0,94,0.00,,---,0.02,VWS V14.01,2013-05-11 13:46:00,
2013-05-11 09:51:00,57.8,55.8,29.88,SW,231,6.0,14.0,93,0.00,,---,0.02,VWS V14.01,2013-05-11 13:51:00,
2013-05-11 09:56:00,57.5,55.8,29.88,WSW,255,2.0,7.0,94,0.00,,---,0.02,VWS V14.01,2013-05-11 13:56:00,
2013-05-11 10:01:00,57.4,55.7,29.89,SSW,209,7.0,16.0,94,0.00,,---,0.02,VWS V14.01,2013-05-11 14:01:00,
2013-05-11 10:06:00,57.1,55.4,29.89,SW,218,6.0,11.0,94,0.00,,---,0.02,VWS V14.01,2013-05-11 14:06:00,
2013-05-11 10:11:00,56.9,55.2,29.89,SW,226,7.0,13.0,94,0.00,,---,0.02,VWS V14.01,2013-05-11 14:11:00,
2013-05-11 10:16:00,56.9,55.5,29.89,SSW,200,6.0,9.0,95,0.00,,---,0.02,VWS V14.01,2013-05-11 14:16:00,
2013-05-11 10:21:00,56.8,55.4,29.89,SW,216,7.0,7.0,95,0.00,,---,0.02,VWS V14.01,2013-05-11 14:21:00,
2013-05-11 10:26:00,56.8,55.4,29.89,South,185,4.0,11.0,95,0.00,,---,0.02,VWS V14.01,2013-05-11 14:26:00,
2013-05-11 10:31:00,56.8,55.1,29.89,SSW,210,9.0,11.0,94,0.00,,---,0.02,VWS V14.01,2013-05-11 14:31:00,
2013-05-11 10:36:00,56.9,55.2,29.90,South,176,10.0,13.0,94,0.00,,---,0.02,VWS V14.01,2013-05-11 14:36:00,
2013-05-11 10:41:00,57.1,55.4,29.90,SSW,203,11.0,13.0,94,0.00,,---,0.02,VWS V14.01,2013-05-11 14:41:00,
2013-05-11 10:46:00,57.5,55.8,29.90,SW,224,5.0,10.0,94,0.00,,---,0.02,VWS V14.01,2013-05-11 14:46:00,
2013-05-11 10:51:00,57.9,55.9,29.90,SW,227,3.0,14.0,93,0.00,,---,0.02,VWS V14.01,2013-05-11 14:51:00,
2013-05-11 10:56:00,58.0,55.7,29.90,SSW,212,5.0,10.0,92,0.00,,---,0.02,VWS V14.01,2013-05-11 14:56:00,
2013-05-11 11:01:00,57.7,55.7,29.90,SSW,204,9.0,11.0,93,0.00,,---,0.02,VWS V14.01,2013-05-11 15:01:00,
2013-05-11 11:06:00,57.4,55.1,29.90,SW,218,14.0,17.0,92,0.00,,---,0.02,VWS V14.01,2013-05-11 15:06:00,
2013-05-11 11:11:00,57.1,55.1,29.90,SW,217,14.0,19.0,93,0.00,,---,0.02,VWS V14.01,2013-05-11 15:11:00,
2013-05-11 11:16:00,57.1,55.1,29.90,SSW,207,11.0,15.0,93,0.00,,---,0.02,VWS V14.01,2013-05-11 15:16:00,
2013-05-11 11:21:00,57.4,55.4,29.89,SSW,208,5.0,9.0,93,0.00,,---,0.02,VWS V14.01,2013-05-11 15:21:00,
2013-05-11 11:26:00,57.4,55.1,29.89,SW,215,12.0,13.0,92,0.00,,---,0.02,VWS V14.01,2013-05-11 15:26:00,
2013-05-11 11:31:00,57.3,55.3,29.88,SW,229,10.0,15.0,93,0.00,,---,0.02,VWS V14.01,2013-05-11 15:31:00,
2013-05-11 11:36:00,57.3,55.3,29.88,South,187,8.0,11.0,93,0.00,,---,0.02,VWS V14.01,2013-05-11 15:36:00,
2013-05-11 11:41:00,57.3,55.6,29.88,SW,225,10.0,16.0,94,0.00,,---,0.02,VWS V14.01,2013-05-11 15:41:00,
2013-05-11 11:46:00,57.4,55.7,29.88,SW,215,10.0,17.0,94,0.00,,---,0.02,VWS V14.01,2013-05-11 15:46:00,
2013-05-11 11:51:00,57.7,56.0,29.87,SSW,193,4.0,13.0,94,0.00,,---,0.02,VWS V14.01,2013-05-11 15:51:00,
2013-05-11 11:56:00,57.9,55.9,29.87,South,178,13.0,13.0,93,0.00,,---,0.02,VWS V14.01,2013-05-11 15:56:00,
2013-05-11 12:01:00,58.0,56.3,29.87,SSW,204,7.0,10.0,94,0.00,,---,0.02,VWS V14.01,2013-05-11 16:01:00,
2013-05-11 12:06:00,58.3,56.3,29.87,South,183,6.0,12.0,93,0.00,,---,0.02,VWS V14.01,2013-05-11 16:06:00,
2013-05-11 12:11:00,58.5,56.5,29.87,SW,214,4.0,13.0,93,0.00,,---,0.02,VWS V14.01,2013-05-11 16:11:00,
2013-05-11 12:16:00,58.4,56.4,29.87,SW,233,5.0,12.0,93,0.00,,---,0.02,VWS V14.01,2013-05-11 16:16:00,
2013-05-11 12:21:00,58.4,56.4,29.86,SW,218,5.0,10.0,93,0.00,,---,0.02,VWS V14.01,2013-05-11 16:21:00,
2013-05-11 12:26:00,58.5,56.5,29.86,SW,220,4.0,9.0,93,0.00,,---,0.02,VWS V14.01,2013-05-11 16:26:00,
2013-05-11 12:31:00,58.5,56.5,29.86,SSW,206,4.0,12.0,93,0.00,,---,0.02,VWS V14.01,2013-05-11 16:31:00,
2013-05-11 12:36:00,58.6,56.9,29.85,SSW,202,4.0,7.0,94,0.00,,---,0.02,VWS V14.01,2013-05-11 16:36:00,
2013-05-11 12:41:00,58.6,56.9,29.85,SW,225,6.0,6.0,94,0.00,,---,0.02,VWS V14.01,2013-05-11 16:41:00,
2013-05-11 12:46:00,58.6,56.9,29.85,SW,230,6.0,11.0,94,0.00,,---,0.02,VWS V14.01,2013-05-11 16:46:00,
2013-05-11 12:51:00,58.7,57.0,29.87,WSW,246,10.0,22.0,94,0.00,,---,0.02,VWS V14.01,2013-05-11 16:51:00,
2013-05-11 12:56:00,58.4,56.7,29.87,SW,235,5.0,12.0,94,0.00,,---,0.02,VWS V14.01,2013-05-11 16:56:00,
2013-05-11 13:01:00,58.2,56.5,29.87,WSW,253,19.0,19.0,94,0.00,,---,0.02,VWS V14.01,2013-05-11 17:01:00,
2013-05-11 13:06:00,58.3,56.6,29.87,SSW,212,7.0,21.0,94,0.01,,---,0.03,VWS V14.01,2013-05-11 17:06:00,
2013-05-11 13:11:00,58.4,56.4,29.87,SW,222,7.0,18.0,93,0.01,,---,0.03,VWS V14.01,2013-05-11 17:11:00,
2013-05-11 13:16:00,58.3,56.3,29.87,South,185,4.0,12.0,93,0.01,,---,0.03,VWS V14.01,2013-05-11 17:16:00,
2013-05-11 13:21:00,58.4,56.4,29.88,WSW,241,14.0,16.0,93,0.01,,---,0.03,VWS V14.01,2013-05-11 17:21:00,
2013-05-11 13:26:00,58.5,56.5,29.88,WSW,242,27.0,27.0,93,0.01,,---,0.03,VWS V14.01,2013-05-11 17:26:00,
2013-05-11 13:31:00,58.5,56.5,29.87,SSW,195,10.0,16.0,93,0.01,,---,0.03,VWS V14.01,2013-05-11 17:31:00,
2013-05-11 13:36:00,58.5,56.5,29.88,WSW,238,16.0,20.0,93,0.01,,---,0.03,VWS V14.01,2013-05-11 17:36:00,
2013-05-11 13:41:00,58.5,56.5,29.88,WSW,237,17.0,26.0,93,0.01,,---,0.03,VWS V14.01,2013-05-11 17:41:00,
2013-05-11 13:46:00,58.6,56.6,29.88,SSW,210,6.0,12.0,93,0.01,,---,0.03,VWS V14.01,2013-05-11 17:46:00,
2013-05-11 13:51:00,58.7,56.4,29.87,SW,232,10.0,22.0,92,0.01,,---,0.03,VWS V14.01,2013-05-11 17:51:00,
2013-05-11 13:56:00,58.8,56.8,29.87,South,181,7.0,20.0,93,0.01,,---,0.03,VWS V14.01,2013-05-11 17:56:00,
2013-05-11 14:01:00,58.8,56.5,29.88,SW,229,12.0,17.0,92,0.01,,---,0.03,VWS V14.01,2013-05-11 18:01:00,
2013-05-11 14:06:00,58.5,56.2,29.87,SW,218,10.0,13.0,92,0.00,,---,0.03,VWS V14.01,2013-05-11 18:06:00,
2013-05-11 14:11:00,58.1,56.1,29.88,SW,218,10.0,21.0,93,0.00,,---,0.03,VWS V14.01,2013-05-11 18:11:00,
2013-05-11 14:16:00,57.9,55.9,29.87,SW,215,6.0,10.0,93,0.00,,---,0.03,VWS V14.01,2013-05-11 18:16:00,
2013-05-11 14:21:00,57.9,56.2,29.87,SW,227,8.0,12.0,94,0.00,,---,0.03,VWS V14.01,2013-05-11 18:21:00,
2013-05-11 14:26:00,57.8,56.1,29.87,SSW,213,6.0,11.0,94,0.00,,---,0.03,VWS V14.01,2013-05-11 18:26:00,
2013-05-11 14:31:00,57.9,56.5,29.86,SW,230,9.0,14.0,95,0.00,,---,0.03,VWS V14.01,2013-05-11 18:31:00,
2013-05-11 14:36:00,58.0,56.6,29.86,South,181,4.0,13.0,95,0.00,,---,0.03,VWS V14.01,2013-05-11 18:36:00,
2013-05-11 14:41:00,58.0,56.6,29.87,SW,224,5.0,11.0,95,0.00,,---,0.03,VWS V14.01,2013-05-11 18:41:00,
2013-05-11 14:46:00,57.9,56.8,29.87,SSW,210,7.0,13.0,96,0.01,,---,0.04,VWS V14.01,2013-05-11 18:46:00,
2013-05-11 14:51:00,57.7,56.6,29.86,SW,215,6.0,10.0,96,0.01,,---,0.04,VWS V14.01,2013-05-11 18:51:00,
2013-05-11 14:56:00,57.6,56.5,29.85,South,174,5.0,12.0,96,0.01,,---,0.04,VWS V14.01,2013-05-11 18:56:00,
2013-05-11 15:01:00,57.5,56.7,29.85,SE,145,6.0,11.0,97,0.02,,---,0.05,VWS V14.01,2013-05-11 19:01:00,
2013-05-11 15:06:00,57.5,56.7,29.85,South,177,11.0,11.0,97,0.02,,---,0.05,VWS V14.01,2013-05-11 19:06:00,
2013-05-11 15:11:00,57.8,57.2,29.85,South,169,8.0,13.0,98,0.02,,---,0.05,VWS V14.01,2013-05-11 19:11:00,
2013-05-11 15:16:00,58.1,57.5,29.84,South,175,11.0,11.0,98,0.02,,---,0.05,VWS V14.01,2013-05-11 19:16:00,
2013-05-11 15:21:00,58.4,57.8,29.84,SSW,207,7.0,10.0,98,0.02,,---,0.05,VWS V14.01,2013-05-11 19:21:00,
2013-05-11 15:26:00,58.5,57.9,29.84,South,187,5.0,12.0,98,0.02,,---,0.05,VWS V14.01,2013-05-11 19:26:00,
2013-05-11 15:31:00,58.6,58.0,29.84,South,180,4.0,10.0,98,0.02,,---,0.05,VWS V14.01,2013-05-11 19:31:00,
2013-05-11 15:36:00,58.5,57.7,29.84,SSW,201,7.0,12.0,97,0.02,,---,0.05,VWS V14.01,2013-05-11 19:36:00,
2013-05-11 15:41:00,58.5,57.7,29.83,South,173,4.0,7.0,97,0.02,,---,0.05,VWS V14.01,2013-05-11 19:41:00,
2013-05-11 15:46:00,58.6,57.8,29.83,South,174,4.0,12.0,97,0.02,,---,0.06,VWS V14.01,2013-05-11 19:46:00,
2013-05-11 15:51:00,58.6,57.8,29.83,SSE,161,6.0,9.0,97,0.02,,---,0.06,VWS V14.01,2013-05-11 19:51:00,
2013-05-11 15:56:00,58.7,57.8,29.82,South,180,4.0,11.0,97,0.02,,---,0.06,VWS V14.01,2013-05-11 19:56:00,
2013-05-11 16:01:00,58.6,57.8,29.83,South,180,4.0,11.0,97,0.02,,---,0.06,VWS V14.01,2013-05-11 20:01:00,
2013-05-11 16:06:00,58.4,57.6,29.83,SSE,163,4.0,9.0,97,0.01,,---,0.06,VWS V14.01,2013-05-11 20:06:00,
2013-05-11 16:11:00,58.3,57.5,29.82,SSE,159,6.0,13.0,97,0.02,,---,0.07,VWS V14.01,2013-05-11 20:11:00,
2013-05-11 16:16:00,58.2,57.4,29.82,South,174,8.0,12.0,97,0.02,,---,0.07,VWS V14.01,2013-05-11 20:16:00,
2013-05-11 16:21:00,58.2,57.4,29.82,South,179,3.0,6.0,97,0.02,,---,0.07,VWS V14.01,2013-05-11 20:21:00,
2013-05-11 16:26:00,58.3,57.7,29.81,ESE,122,3.0,6.0,98,0.02,,---,0.07,VWS V14.01,2013-05-11 20:26:00,
2013-05-11 16:31:00,58.3,57.7,29.81,South,170,14.0,14.0,98,0.02,,---,0.07,VWS V14.01,2013-05-11 20:31:00,
2013-05-11 16:36:00,58.6,58.0,29.81,SE,135,4.0,15.0,98,0.02,,---,0.07,VWS V14.01,2013-05-11 20:36:00,
2013-05-11 16:41:00,58.7,58.1,29.81,South,173,8.0,16.0,98,0.02,,---,0.07,VWS V14.01,2013-05-11 20:41:00,
2013-05-11 16:46:00,58.7,58.1,29.81,South,179,12.0,12.0,98,0.02,,---,0.07,VWS V14.01,2013-05-11 20:46:00,
2013-05-11 16:51:00,58.7,57.8,29.80,South,184,5.0,13.0,97,0.01,,---,0.07,VWS V14.01,2013-05-11 20:51:00,
2013-05-11 16:56:00,58.7,57.8,29.81,SSE,160,6.0,12.0,97,0.01,,---,0.07,VWS V14.01,2013-05-11 20:56:00,
2013-05-11 17:01:00,58.8,58.0,29.81,SE,138,9.0,12.0,97,0.01,,---,0.07,VWS V14.01,2013-05-11 21:01:00,
2013-05-11 17:06:00,58.7,57.8,29.80,South,183,6.0,14.0,97,0.01,,---,0.07,VWS V14.01,2013-05-11 21:06:00,
2013-05-11 17:11:00,58.7,57.8,29.80,SE,139,5.0,14.0,97,0.00,,---,0.07,VWS V14.01,2013-05-11 21:11:00,
2013-05-11 17:16:00,58.7,57.8,29.80,SSE,150,10.0,14.0,97,0.00,,---,0.07,VWS V14.01,2013-05-11 21:16:00,
2013-05-11 17:21:00,58.7,57.8,29.80,SSE,159,5.0,11.0,97,0.00,,---,0.07,VWS V14.01,2013-05-11 21:21:00,
2013-05-11 17:26:00,58.8,58.0,29.81,SSE,164,5.0,15.0,97,0.00,,---,0.07,VWS V14.01,2013-05-11 21:26:00,
2013-05-11 17:31:00,59.2,58.3,29.81,SW,214,6.0,13.0,97,0.00,,---,0.07,VWS V14.01,2013-05-11 21:31:00,
2013-05-11 17:36:00,59.4,58.5,29.81,South,170,7.0,17.0,97,0.00,,---,0.07,VWS V14.01,2013-05-11 21:36:00,
2013-05-11 17:41:00,59.4,58.3,29.81,South,174,6.0,14.0,96,0.00,,---,0.07,VWS V14.01,2013-05-11 21:41:00,
2013-05-11 17:46:00,59.1,58.0,29.81,South,172,5.0,9.0,96,0.00,,---,0.07,VWS V14.01,2013-05-11 21:46:00,
2013-05-11 17:51:00,58.8,57.7,29.82,SSE,162,5.0,14.0,96,0.00,,---,0.07,VWS V14.01,2013-05-11 21:51:00,
2013-05-11 17:56:00,58.6,57.5,29.82,SSW,208,9.0,10.0,96,0.00,,---,0.07,VWS V14.01,2013-05-11 21:56:00,
2013-05-11 18:01:00,58.6,57.8,29.81,SSE,147,5.0,13.0,97,0.00,,---,0.07,VWS V14.01,2013-05-11 22:01:00,
2013-05-11 18:06:00,58.6,57.8,29.81,South,177,6.0,18.0,97,0.00,,---,0.07,VWS V14.01,2013-05-11 22:06:00,
2013-05-11 18:11:00,58.6,57.5,29.81,South,180,9.0,11.0,96,0.00,,---,0.07,VWS V14.01,2013-05-11 22:11:00,
2013-05-11 18:16:00,58.4,57.3,29.82,SSE,164,9.0,12.0,96,0.00,,---,0.07,VWS V14.01,2013-05-11 22:16:00,
2013-05-11 18:21:00,58.3,57.5,29.81,SSE,160,3.0,10.0,97,0.00,,---,0.07,VWS V14.01,2013-05-11 22:21:00,
2013-05-11 18:26:00,58.2,57.4,29.81,South,181,8.0,11.0,97,0.00,,---,0.07,VWS V14.01,2013-05-11 22:26:00,
2013-05-11 18:31:00,58.1,57.3,29.82,SSE,150,10.0,10.0,97,0.00,,---,0.07,VWS V14.01,2013-05-11 22:31:00,
2013-05-11 18:36:00,58.0,57.2,29.82,SSE,168,9.0,10.0,97,0.00,,---,0.07,VWS V14.01,2013-05-11 22:36:00,
2013-05-11 18:41:00,57.8,57.0,29.82,SSE,166,3.0,7.0,97,0.00,,---,0.07,VWS V14.01,2013-05-11 22:41:00,
2013-05-11 18:46:00,57.8,57.0,29.81,SSE,164,6.0,12.0,97,0.00,,---,0.07,VWS V14.01,2013-05-11 22:46:00,
2013-05-11 18:51:00,57.8,57.0,29.81,SSE,154,2.0,7.0,97,0.00,,---,0.07,VWS V14.01,2013-05-11 22:51:00,
2013-05-11 18:56:00,57.8,57.0,29.81,SSE,167,8.0,9.0,97,0.01,,---,0.08,VWS V14.01,2013-05-11 22:56:00,
2013-05-11 19:01:00,57.9,57.1,29.81,SSE,168,2.0,6.0,97,0.01,,---,0.08,VWS V14.01,2013-05-11 23:01:00,
2013-05-11 19:06:00,57.9,57.1,29.81,South,180,3.0,9.0,97,0.01,,---,0.08,VWS V14.01,2013-05-11 23:06:00,
2013-05-11 19:11:00,57.9,57.1,29.81,SSW,207,2.0,7.0,97,0.01,,---,0.08,VWS V14.01,2013-05-11 23:11:00,
2013-05-11 19:16:00,57.9,57.1,29.82,South,189,2.0,5.0,97,0.01,,---,0.08,VWS V14.01,2013-05-11 23:16:00,
2013-05-11 19:21:00,57.8,57.0,29.82,SW,233,5.0,10.0,97,0.01,,---,0.08,VWS V14.01,2013-05-11 23:21:00,
2013-05-11 19:26:00,57.7,56.9,29.81,South,170,2.0,3.0,97,0.12,,---,0.19,VWS V14.01,2013-05-11 23:26:00,
2013-05-11 19:31:00,57.8,57.2,29.81,South,174,5.0,5.0,98,0.26,,---,0.33,VWS V14.01,2013-05-11 23:31:00,
2013-05-11 19:36:00,58.6,58.0,29.79,SW,220,5.0,5.0,98,0.34,,---,0.41,VWS V14.01,2013-05-11 23:36:00,
2013-05-11 19:41:00,59.0,58.4,29.79,SSE,165,1.0,4.0,98,0.35,,---,0.42,VWS V14.01,2013-05-11 23:41:00,
2013-05-11 19:46:00,58.9,58.3,29.79,SSW,193,3.0,5.0,98,0.35,,---,0.42,VWS V14.01,2013-05-11 23:46:00,
2013-05-11 19:51:00,59.0,58.4,29.79,SSE,168,3.0,12.0,98,0.35,,---,0.42,VWS V14.01,2013-05-11 23:51:00,
2013-05-11 19:56:00,59.0,58.4,29.79,South,170,3.0,6.0,98,0.34,,---,0.42,VWS V14.01,2013-05-11 23:56:00,
2013-05-11 20:01:00,58.9,58.3,29.78,SE,127,6.0,10.0,98,0.34,,---,0.42,VWS V14.01,2013-05-12 00:01:00,
2013-05-11 20:06:00,59.6,59.3,29.77,South,178,4.0,14.0,99,0.34,,---,0.42,VWS V14.01,2013-05-12 00:06:00,
2013-05-11 20:11:00,60.4,60.1,29.76,SSE,165,6.0,13.0,99,0.36,,---,0.44,VWS V14.01,2013-05-12 00:11:00,
2013-05-11 20:16:00,60.5,60.2,29.76,SE,139,14.0,14.0,99,0.38,,---,0.46,VWS V14.01,2013-05-12 00:16:00,
2013-05-11 20:21:00,60.8,60.5,29.76,South,171,10.0,15.0,99,0.39,,---,0.47,VWS V14.01,2013-05-12 00:21:00,
2013-05-11 20:26:00,60.9,60.6,29.76,SSE,158,9.0,14.0,99,0.31,,---,0.47,VWS V14.01,2013-05-12 00:26:00,
2013-05-11 20:31:00,60.5,59.9,29.80,WSW,239,2.0,18.0,98,0.16,,---,0.48,VWS V14.01,2013-05-12 00:31:00,
2013-05-11 20:36:00,59.6,59.0,29.81,SW,236,15.0,16.0,98,0.15,,---,0.56,VWS V14.01,2013-05-12 00:36:00,
2013-05-11 20:41:00,59.1,58.5,29.81,WSW,241,7.0,15.0,98,0.14,,---,0.56,VWS V14.01,2013-05-12 00:41:00,
2013-05-11 20:46:00,59.5,58.9,29.80,SW,216,8.0,12.0,98,0.16,,---,0.58,VWS V14.01,2013-05-12 00:46:00,
2013-05-11 20:51:00,59.8,59.2,29.80,SW,222,5.0,6.0,98,0.19,,---,0.61,VWS V14.01,2013-05-12 00:51:00,
2013-05-11 20:56:00,59.6,59.0,29.80,WSW,250,11.0,18.0,98,0.21,,---,0.63,VWS V14.01,2013-05-12 00:56:00,
2013-05-11 21:01:00,59.5,58.9,29.80,South,169,6.0,11.0,98,0.34,,---,0.76,VWS V14.01,2013-05-12 01:01:00,
2013-05-11 21:06:00,59.9,59.6,29.79,South,181,7.0,13.0,99,0.42,,---,0.84,VWS V14.01,2013-05-12 01:06:00,
2013-05-11 21:11:00,59.6,59.0,29.81,South,179,3.0,9.0,98,0.43,,---,0.86,VWS V14.01,2013-05-12 01:11:00,
2013-05-11 21:16:00,59.4,58.8,29.80,South,179,4.0,14.0,98,0.45,,---,0.91,VWS V14.01,2013-05-12 01:16:00,
2013-05-11 21:21:00,59.2,58.6,29.80,SSW,206,4.0,9.0,98,0.46,,---,0.93,VWS V14.01,2013-05-12 01:21:00,
2013-05-11 21:26:00,59.3,58.7,29.80,SW,216,6.0,10.0,98,0.46,,---,0.93,VWS V14.01,2013-05-12 01:26:00,
2013-05-11 21:31:00,59.5,58.9,29.79,South,190,10.0,15.0,98,0.48,,---,0.96,VWS V14.01,2013-05-12 01:31:00,
2013-05-11 21:36:00,59.6,59.0,29.79,SW,217,21.0,21.0,98,0.42,,---,0.97,VWS V14.01,2013-05-12 01:36:00,
2013-05-11 21:41:00,59.7,59.1,29.79,SW,222,14.0,15.0,98,0.41,,---,0.97,VWS V14.01,2013-05-12 01:41:00,
2013-05-11 21:46:00,59.8,59.2,29.79,SW,227,13.0,13.0,98,0.42,,---,1.00,VWS V14.01,2013-05-12 01:46:00,
2013-05-11 21:51:00,59.8,59.2,29.78,South,180,5.0,14.0,98,0.50,,---,1.10,VWS V14.01,2013-05-12 01:51:00,
2013-05-11 21:56:00,60.3,59.7,29.79,SW,218,12.0,16.0,98,0.55,,---,1.17,VWS V14.01,2013-05-12 01:56:00,
2013-05-11 22:01:00,60.2,59.6,29.78,South,181,10.0,11.0,98,0.48,,---,1.18,VWS V14.01,2013-05-12 02:01:00,
2013-05-11 22:06:00,59.8,59.2,29.78,SSW,192,6.0,12.0,98,0.38,,---,1.22,VWS V14.01,2013-05-12 02:06:00,
2013-05-11 22:11:00,59.6,59.0,29.78,South,174,9.0,10.0,98,0.38,,---,1.23,VWS V14.01,2013-05-12 02:11:00,
2013-05-11 22:16:00,59.3,58.7,29.78,SSW,212,6.0,11.0,98,0.32,,---,1.23,VWS V14.01,2013-05-12 02:16:00,
2013-05-11 22:21:00,58.8,58.2,29.78,SSE,161,6.0,7.0,98,0.31,,---,1.24,VWS V14.01,2013-05-12 02:21:00,
2013-05-11 22:26:00,58.6,58.0,29.78,South,189,8.0,9.0,98,0.33,,---,1.26,VWS V14.01,2013-05-12 02:26:00,
2013-05-11 22:31:00,58.5,57.9,29.77,South,185,5.0,12.0,98,0.33,,---,1.28,VWS V14.01,2013-05-12 02:31:00,
2013-05-11 22:36:00,58.2,57.6,29.77,SW,229,10.0,14.0,98,0.32,,---,1.29,VWS V14.01,2013-05-12 02:36:00,
2013-05-11 22:41:00,57.8,57.2,29.78,South,182,4.0,9.0,98,0.34,,---,1.31,VWS V14.01,2013-05-12 02:41:00,
2013-05-11 22:45:00,57.5,56.9,29.77,South,188,10.0,10.0,98,0.33,,---,1.32,VWS V14.01,2013-05-12 02:45:00,
2013-05-11 22:50:00,57.5,56.9,29.78,SSW,199,5.0,10.0,98,0.28,,---,1.34,VWS V14.01,2013-05-12 02:50:00,
2013-05-11 22:55:00,57.5,56.9,29.77,South,183,6.0,7.0,98,0.19,,---,1.35,VWS V14.01,2013-05-12 02:55:00,
2013-05-11 23:00:00,57.3,56.7,29.77,South,173,6.0,10.0,98,0.18,,---,1.36,VWS V14.01,2013-05-12 03:00:00,
2013-05-11 23:05:00,57.1,56.5,29.76,South,176,4.0,6.0,98,0.17,,---,1.38,VWS V14.01,2013-05-12 03:05:00,
2013-05-11 23:10:00,57.1,56.5,29.76,South,184,4.0,7.0,98,0.16,,---,1.39,VWS V14.01,2013-05-12 03:10:00,
2013-05-11 23:15:00,57.1,56.5,29.76,South,183,2.0,9.0,98,0.18,,---,1.41,VWS V14.01,2013-05-12 03:15:00,
2013-05-11 23:20:00,57.0,56.7,29.76,South,185,4.0,4.0,99,0.18,,---,1.42,VWS V14.01,2013-05-12 03:20:00,
2013-05-11 23:25:00,56.9,56.6,29.77,SSW,200,4.0,4.0,99,0.18,,---,1.44,VWS V14.01,2013-05-12 03:25:00,
2013-05-11 23:30:00,56.7,56.1,29.77,SW,223,5.0,7.0,98,0.16,,---,1.44,VWS V14.01,2013-05-12 03:30:00,
2013-05-11 23:35:00,56.5,55.9,29.77,South,179,5.0,5.0,98,0.16,,---,1.45,VWS V14.01,2013-05-12 03:35:00,
2013-05-11 23:40:00,56.4,56.1,29.76,South,183,3.0,6.0,99,0.15,,---,1.45,VWS V14.01,2013-05-12 03:40:00,
2013-05-11 23:45:00,56.3,56.0,29.76,South,180,2.0,5.0,99,0.13,,---,1.45,VWS V14.01,2013-05-12 03:45:00,
2013-05-11 23:50:00,56.2,55.9,29.76,South,189,2.0,3.0,99,0.12,,---,1.45,VWS V14.01,2013-05-12 03:50:00,
2013-05-11 23:55:00,56.2,55.9,29.76,SW,218,9.0,11.0,99,0.11,,---,1.45,VWS V14.01,2013-05-12 03:55:00,